Terminal Aerodrome Forecast
Issued by NWS Anchorage, AK

Home | Current Version | Previous Version | Text Only | Print | Product List | Glossary On
Versions: 1 2 3 4 5 6 7 8 9 10 11 12 13 14 15 16 17 18 19 20 21 22 23 24 25 26 27 28 29 30 31 32 33 34 35 36 37 38 39 40 41 42 43 44 45 46 47 48 49 50
000
FTAK31 PANC 061736
TAFANC
TAF
PANC 061736Z 0618/0724 18003KT P6SM BCFG FEW001 BKN035
      TEMPO 0618/0619 4SM BR SCT001 BKN030
     FM062000 17004KT P6SM SCT040 BKN120
     FM070200 16012G18KT P6SM BKN060
     FM070500 17015G22KT P6SM -RA BKN035
     FM070900 17012G20KT 2SM -SN SCT010 OVC020
     FM071700 19018G26KT P6SM VCSH SCT020 BKN035
     FM072100 18014G22KT P6SM SCT035 BKN070=

USA.gov is the U.S. government's official web portal to all federal, state and local government web resources and services.